Time;durP1;ratioP1;P1;durP2;ratioP2;P2;SDS_P1;SDS_P2;PMS_P1;PMS_P2;Temp;Humidity;BMP_temperature;BMP_pressure;BME280_temperature;BME280_humidity;BME280_pressure;Samples;Min_cycle;Max_cycle;Signal;HPM_P1;HPM_P2
2022/02/23 00:00:52;;;;;;;2.13;1.10;;;;;;;3.07;67.39;99156.89;1718311;80;21058;-58
2022/02/23 00:03:19;;;;;;;3.60;1.73;;;;;;;3.04;67.52;99156.55;1773822;78;20938;-57
2022/02/23 00:05:45;;;;;;;3.73;1.40;;;;;;;3.02;67.63;99158.37;1736843;80;21060;-57
2022/02/23 00:08:12;;;;;;;2.90;1.37;;;;;;;3.00;67.87;99152.66;1739542;80;21616;-56
2022/02/23 00:10:38;;;;;;;2.73;1.43;;;;;;;2.98;68.12;99152.70;1740030;80;21104;-54
2022/02/23 00:13:05;;;;;;;6.53;1.20;;;;;;;2.99;68.31;99147.80;1765771;78;21097;-56
2022/02/23 00:15:31;;;;;;;2.33;1.13;;;;;;;2.99;68.54;99154.91;1736457;80;21415;-57
2022/02/23 00:17:57;;;;;;;3.30;1.60;;;;;;;3.00;68.74;99152.66;1738834;80;21104;-58
2022/02/23 00:20:24;;;;;;;3.73;1.67;;;;;;;3.00;68.88;99153.99;1740265;80;21085;-56
2022/02/23 00:22:51;;;;;;;3.13;1.70;;;;;;;3.00;69.07;99147.34;1736878;80;22000;-56
2022/02/23 00:25:17;;;;;;;3.43;1.67;;;;;;;3.00;69.26;99142.91;1738098;80;21489;-55
2022/02/23 00:27:44;;;;;;;3.83;1.20;;;;;;;3.02;69.36;99146.40;1740400;80;21534;-55
2022/02/23 00:30:10;;;;;;;2.47;1.03;;;;;;;3.04;69.47;99152.55;1766527;78;20903;-58
2022/02/23 00:32:36;;;;;;;1.60;1.00;;;;;;;3.08;69.53;99143.14;1738921;80;20927;-55
2022/02/23 00:35:03;;;;;;;1.87;0.80;;;;;;;3.09;69.57;99148.88;1745672;80;21149;-57
2022/02/23 00:37:32;;;;;;;3.80;0.80;;;;;;;3.10;69.62;99142.20;1747438;80;22535;-55
2022/02/23 00:39:58;;;;;;;2.07;0.70;;;;;;;3.11;69.68;99142.61;1743879;80;20997;-55
2022/02/23 00:42:25;;;;;;;1.53;0.90;;;;;;;3.11;69.72;99137.75;1741257;80;22346;-55
2022/02/23 00:44:53;;;;;;;1.50;0.80;;;;;;;3.12;69.76;99139.50;1740890;80;21045;-54
2022/02/23 00:47:19;;;;;;;2.13;0.90;;;;;;;3.11;69.83;99141.28;1747746;80;21851;-54
2022/02/23 00:49:47;;;;;;;1.53;0.90;;;;;;;3.11;69.87;99147.06;1745211;79;21320;-53
2022/02/23 00:52:14;;;;;;;2.90;1.10;;;;;;;3.10;69.86;99146.64;1747595;79;21111;-54
2022/02/23 00:54:40;;;;;;;1.70;0.87;;;;;;;3.10;69.81;99146.64;1809621;77;21437;-56
2022/02/23 00:57:06;;;;;;;2.00;0.80;;;;;;;3.08;69.81;99149.79;1745036;80;21559;-56
2022/02/23 00:59:33;;;;;;;1.90;0.90;;;;;;;3.04;69.81;99144.58;1739368;80;21824;-57
2022/02/23 01:01:59;;;;;;;3.87;1.10;;;;;;;3.01;69.89;99140.66;1739895;80;22711;-56
2022/02/23 01:04:25;;;;;;;2.07;1.10;;;;;;;2.98;69.96;99140.73;1742467;80;22334;-56
2022/02/23 01:06:52;;;;;;;1.83;0.90;;;;;;;2.98;70.01;99147.38;1743206;80;21721;-57
2022/02/23 01:09:18;;;;;;;1.93;1.00;;;;;;;3.00;70.02;99165.95;1743473;80;20899;-56
2022/02/23 01:11:44;;;;;;;3.23;0.90;;;;;;;3.00;70.02;99165.95;1745023;80;21110;-56
2022/02/23 01:14:11;;;;;;;1.40;0.87;;;;;;;3.02;70.03;99171.66;1739131;80;21050;-57
2022/02/23 01:16:37;;;;;;;4.37;1.40;;;;;;;3.05;70.12;99173.38;1762004;78;21070;-55
2022/02/23 01:19:05;;;;;;;3.67;1.20;;;;;;;3.08;70.17;99170.61;1766541;79;21064;-56
2022/02/23 01:21:32;;;;;;;4.50;1.10;;;;;;;3.12;70.16;99170.95;1739615;80;21754;-55
2022/02/23 01:23:58;;;;;;;3.30;1.10;;;;;;;3.15;70.17;99180.16;1763871;78;22187;-56
2022/02/23 01:26:24;;;;;;;1.60;0.90;;;;;;;3.17;70.17;99178.34;1767704;79;21651;-58
2022/02/23 01:28:50;;;;;;;3.97;1.20;;;;;;;3.18;70.23;99181.88;1738394;80;21818;-55
2022/02/23 01:31:17;;;;;;;1.80;0.93;;;;;;;3.17;70.31;99179.66;1766440;79;21072;-55
2022/02/23 01:33:43;;;;;;;2.33;1.17;;;;;;;3.18;70.35;99181.41;1737789;80;21025;-57
2022/02/23 01:36:09;;;;;;;6.53;1.20;;;;;;;3.20;70.40;99192.89;1739919;80;21121;-54
2022/02/23 01:38:36;;;;;;;3.87;1.00;;;;;;;3.22;70.43;99186.20;1742232;80;21051;-55
2022/02/23 01:41:02;;;;;;;1.60;0.83;;;;;;;3.25;70.43;99190.09;1737174;80;21061;-56
2022/02/23 01:43:29;;;;;;;2.13;0.80;;;;;;;3.28;70.45;99197.54;1740651;80;22680;-54
2022/02/23 01:45:55;;;;;;;2.30;0.83;;;;;;;3.33;70.49;99196.07;1735293;80;21518;-55
2022/02/23 01:48:23;;;;;;;4.27;1.00;;;;;;;3.39;70.47;99199.91;1767669;78;20966;-54
2022/02/23 01:50:51;;;;;;;1.77;0.90;;;;;;;3.41;70.42;99201.59;1746833;79;21045;-56
2022/02/23 01:53:18;;;;;;;3.80;1.20;;;;;;;3.45;70.36;99208.17;1744527;79;21309;-55
2022/02/23 01:55:44;;;;;;;4.33;0.90;;;;;;;3.49;70.31;99208.52;1744968;79;21733;-57
2022/02/23 01:58:10;;;;;;;1.57;0.90;;;;;;;3.49;70.22;99208.02;1750945;79;21730;-56
2022/02/23 02:00:37;;;;;;;3.53;1.10;;;;;;;3.48;70.18;99213.41;1751181;79;21154;-57
2022/02/23 02:03:04;;;;;;;3.97;1.00;;;;;;;3.47;70.19;99219.19;1750364;79;20922;-55
2022/02/23 02:05:31;;;;;;;2.20;1.27;;;;;;;3.46;70.22;99220.55;1751252;79;20918;-57
2022/02/23 02:07:57;;;;;;;1.33;1.07;;;;;;;3.44;70.29;99220.59;1755020;79;21053;-55
2022/02/23 02:10:24;;;;;;;2.23;1.07;;;;;;;3.42;70.36;99222.42;1747022;80;21850;-57
2022/02/23 02:12:50;;;;;;;2.30;0.90;;;;;;;3.42;70.54;99222.42;1746965;80;21412;-56
2022/02/23 02:15:16;;;;;;;3.50;0.90;;;;;;;3.41;70.71;99228.20;1743954;80;20925;-59
2022/02/23 02:17:43;;;;;;;2.80;0.90;;;;;;;3.42;70.88;99227.28;1769445;78;20883;-57
2022/02/23 02:20:10;;;;;;;3.23;0.93;;;;;;;3.46;71.03;99233.86;1746236;80;21359;-57
2022/02/23 02:22:37;;;;;;;1.77;0.90;;;;;;;3.50;71.13;99239.04;1745825;80;20924;-57
2022/02/23 02:25:05;;;;;;;3.47;1.00;;;;;;;3.52;71.15;99247.86;1744688;80;21124;-57
2022/02/23 02:27:32;;;;;;;6.60;1.57;;;;;;;3.55;71.22;99251.78;1745428;79;21049;-57
2022/02/23 02:29:59;;;;;;;2.97;1.20;;;;;;;3.58;71.26;99253.45;1746365;79;21009;-57
2022/02/23 02:32:26;;;;;;;4.20;1.40;;;;;;;3.58;71.31;99250.80;1750591;79;21428;-54
2022/02/23 02:34:52;;;;;;;3.77;1.47;;;;;;;3.54;71.42;99254.48;1746007;79;21030;-54
2022/02/23 02:37:19;;;;;;;1.70;1.10;;;;;;;3.51;71.58;99262.08;1744665;79;22296;-55
2022/02/23 02:39:45;;;;;;;1.90;1.07;;;;;;;3.48;71.70;99267.96;1742924;79;20977;-53
2022/02/23 02:42:12;;;;;;;3.13;1.00;;;;;;;3.47;71.84;99273.73;1741561;79;21081;-56
2022/02/23 02:44:38;;;;;;;4.80;1.00;;;;;;;3.47;71.92;99276.40;1742590;79;21060;-55
2022/02/23 02:47:05;;;;;;;4.30;0.90;;;;;;;3.49;72.05;99283.86;1742613;79;21053;-54
2022/02/23 02:49:31;;;;;;;1.70;0.90;;;;;;;3.51;72.14;99282.48;1748384;79;21514;-53
2022/02/23 02:51:58;;;;;;;1.47;1.00;;;;;;;3.53;72.23;99278.01;1746221;79;21018;-54
2022/02/23 02:54:24;;;;;;;1.70;0.97;;;;;;;3.56;72.13;99284.59;1748710;79;22264;-54
2022/02/23 02:56:50;;;;;;;1.93;0.80;;;;;;;3.57;72.01;99287.67;1740709;79;21753;-57
2022/02/23 02:59:17;;;;;;;1.30;0.70;;;;;;;3.55;71.95;99291.70;1743513;79;21056;-57
2022/02/23 03:01:43;;;;;;;1.93;1.00;;;;;;;3.56;71.82;99296.56;1750821;78;21152;-57
2022/02/23 03:04:09;;;;;;;2.63;0.80;;;;;;;3.53;71.67;99297.51;1725159;81;21722;-57
2022/02/23 03:06:36;;;;;;;1.53;0.70;;;;;;;3.52;71.51;99302.41;1724198;81;21103;-56
2022/02/23 03:09:05;;;;;;;5.10;0.70;;;;;;;3.50;71.22;99296.25;1693915;82;21167;-56
2022/02/23 03:11:31;;;;;;;1.40;0.53;;;;;;;3.47;70.81;99299.47;1727925;81;21392;-56
2022/02/23 03:13:57;;;;;;;0.80;0.50;;;;;;;3.43;70.53;99307.52;1726229;81;21370;-57
2022/02/23 03:16:23;;;;;;;2.57;0.57;;;;;;;3.42;70.26;99303.56;1700903;82;20934;-57
2022/02/23 03:18:50;;;;;;;2.23;0.50;;;;;;;3.42;69.83;99300.91;1723250;81;21120;-56
2022/02/23 03:21:16;;;;;;;2.20;0.53;;;;;;;3.46;69.58;99309.23;1692704;82;21431;-56
2022/02/23 03:23:42;;;;;;;0.93;0.50;;;;;;;3.47;69.15;99303.46;1724127;81;21486;-57
2022/02/23 03:26:10;;;;;;;1.00;0.60;;;;;;;3.48;68.96;99310.53;1698569;82;22006;-57
2022/02/23 03:28:38;;;;;;;0.83;0.50;;;;;;;3.46;68.72;99303.04;1724770;81;21453;-56
2022/02/23 03:31:05;;;;;;;0.70;0.50;;;;;;;3.41;68.39;99304.47;1725065;81;21068;-57
2022/02/23 03:33:32;;;;;;;2.20;0.60;;;;;;;3.37;68.27;99309.02;1723429;81;21084;-57
2022/02/23 03:35:59;;;;;;;1.57;0.60;;;;;;;3.32;68.10;99306.05;1698130;82;21080;-57
2022/02/23 03:40:57;;;;;;;1.90;0.83;;;;;;;3.28;68.14;99312.38;1843342;75;26407;-58
2022/02/23 03:43:23;;;;;;;1.80;0.70;;;;;;;3.21;68.20;99318.77;1805501;77;21605;-56
2022/02/23 03:45:49;;;;;;;2.73;0.97;;;;;;;3.18;68.37;99325.48;1805824;77;21115;-56
2022/02/23 03:48:16;;;;;;;1.77;0.60;;;;;;;3.12;68.53;99326.52;1803320;77;21069;-57
2022/02/23 03:50:42;;;;;;;1.43;0.80;;;;;;;3.07;68.61;99332.84;1805822;77;21096;-56
2022/02/23 03:53:08;;;;;;;2.53;0.60;;;;;;;3.02;68.55;99334.30;1804902;77;20993;-56
2022/02/23 03:55:35;;;;;;;1.07;0.70;;;;;;;2.94;68.30;99336.27;1807358;77;21262;-56
2022/02/23 03:58:02;;;;;;;2.67;0.80;;;;;;;2.87;68.11;99336.01;1781638;78;22577;-56
2022/02/23 04:00:28;;;;;;;1.17;0.67;;;;;;;2.81;67.97;99343.66;1783689;78;20989;-56
2022/02/23 04:02:54;;;;;;;1.60;0.60;;;;;;;2.77;67.88;99338.46;1781771;78;21669;-56
2022/02/23 04:05:20;;;;;;;2.33;0.80;;;;;;;2.71;67.81;99342.59;1783045;78;21068;-56
2022/02/23 04:07:47;;;;;;;2.60;0.90;;;;;;;2.66;67.76;99339.58;1782150;78;21072;-56
2022/02/23 04:10:18;;;;;;;1.70;0.70;;;;;;;2.63;67.81;99346.31;1784027;78;21133;-56
2022/02/23 04:12:45;;;;;;;2.80;0.90;;;;;;;2.58;67.80;99347.30;1752279;80;20936;-56
2022/02/23 04:15:10;;;;;;;1.30;0.70;;;;;;;2.52;67.79;99345.67;1752649;80;20932;-56
2022/02/23 04:17:37;;;;;;;3.83;0.70;;;;;;;2.47;67.86;99348.86;1736372;80;21376;-56
2022/02/23 04:20:05;;;;;;;2.97;0.80;;;;;;;2.44;67.92;99356.05;1736041;80;21468;-56
2022/02/23 04:22:35;;;;;;;2.07;0.60;;;;;;;2.38;67.80;99363.70;1740761;80;21446;-56
2022/02/23 04:25:01;;;;;;;0.80;0.50;;;;;;;2.31;67.77;99370.02;1739690;80;21362;-56
2022/02/23 04:27:27;;;;;;;1.87;0.70;;;;;;;2.26;67.62;99367.93;1738615;80;20954;-56
2022/02/23 04:29:54;;;;;;;1.53;0.50;;;;;;;2.20;67.37;99367.62;1739270;80;20953;-56
2022/02/23 04:32:20;;;;;;;1.00;0.53;;;;;;;2.14;67.17;99361.08;1737929;80;21055;-57
2022/02/23 04:34:47;;;;;;;0.90;0.50;;;;;;;2.09;66.88;99368.28;1736660;80;21151;-56
2022/02/23 04:37:15;;;;;;;2.10;0.50;;;;;;;2.04;66.58;99372.78;1735234;80;21107;-56
2022/02/23 04:39:41;;;;;;;1.40;0.50;;;;;;;1.98;66.22;99381.33;1737320;80;21085;-57
2022/02/23 04:42:09;;;;;;;0.97;0.57;;;;;;;1.92;66.05;99379.69;1736784;81;21062;-57
2022/02/23 04:44:36;;;;;;;2.00;0.50;;;;;;;1.87;65.81;99386.39;1738001;80;20957;-57
2022/02/23 04:47:04;;;;;;;0.73;0.50;;;;;;;1.83;65.61;99390.47;1734921;81;21166;-57
2022/02/23 04:49:30;;;;;;;1.70;0.70;;;;;;;1.81;65.43;99390.94;1757144;80;21659;-57
2022/02/23 04:51:56;;;;;;;1.80;0.60;;;;;;;1.77;65.18;99391.47;1733291;81;20888;-57
2022/02/23 04:54:23;;;;;;;1.57;0.50;;;;;;;1.74;65.00;99394.62;1733434;81;20909;-57
2022/02/23 04:56:49;;;;;;;1.57;0.40;;;;;;;1.70;64.86;99401.75;1733566;81;20923;-57
2022/02/23 04:59:16;;;;;;;1.00;0.40;;;;;;;1.68;64.66;99402.70;1733168;81;21037;-57
2022/02/23 05:01:42;;;;;;;0.57;0.37;;;;;;;1.62;64.50;99401.46;1731833;81;20956;-57
2022/02/23 05:04:08;;;;;;;2.77;0.50;;;;;;;1.58;64.37;99419.23;1734879;81;20905;-57
2022/02/23 05:06:35;;;;;;;0.97;0.50;;;;;;;1.53;64.24;99414.47;1733580;81;20891;-57
2022/02/23 05:09:01;;;;;;;4.10;0.57;;;;;;;1.50;64.16;99413.18;1732751;81;20985;-56
2022/02/23 05:11:29;;;;;;;1.20;0.60;;;;;;;1.48;64.10;99414.98;1734331;81;21079;-57
2022/02/23 05:13:55;;;;;;;1.80;0.63;;;;;;;1.46;63.96;99422.95;1744797;80;20928;-56
2022/02/23 05:16:23;;;;;;;1.67;0.70;;;;;;;1.43;63.84;99423.03;1744322;80;20860;-57
2022/02/23 05:18:49;;;;;;;1.67;0.70;;;;;;;1.42;63.82;99432.33;1743385;80;21832;-56
2022/02/23 05:21:16;;;;;;;4.10;0.90;;;;;;;1.40;63.74;99427.49;1744913;80;20996;-56
2022/02/23 05:23:42;;;;;;;1.33;0.80;;;;;;;1.38;63.56;99424.86;1744642;80;21968;-56
2022/02/23 05:26:11;;;;;;;1.10;0.63;;;;;;;1.38;63.49;99429.29;1745898;80;21337;-56
2022/02/23 05:28:36;;;;;;;0.80;0.60;;;;;;;1.35;63.30;99430.23;1747424;80;20904;-57
2022/02/23 05:31:03;;;;;;;0.87;0.57;;;;;;;1.37;63.26;99435.04;1745864;80;20975;-56
2022/02/23 05:33:29;;;;;;;0.50;0.40;;;;;;;1.39;63.11;99441.66;1745154;80;20930;-57
2022/02/23 05:35:56;;;;;;;0.80;0.40;;;;;;;1.41;62.90;99439.41;1744556;80;21105;-57
2022/02/23 05:38:23;;;;;;;1.03;0.40;;;;;;;1.49;62.83;99439.28;1745282;80;20968;-57
2022/02/23 05:40:49;;;;;;;0.50;0.30;;;;;;;1.59;62.71;99434.70;1750364;80;21427;-57
2022/02/23 05:43:15;;;;;;;0.70;0.30;;;;;;;1.69;62.42;99443.80;1718080;81;21629;-57
2022/02/23 05:45:42;;;;;;;0.60;0.30;;;;;;;1.78;62.09;99448.95;1732478;81;21083;-57
2022/02/23 05:48:08;;;;;;;0.70;0.30;;;;;;;1.87;61.89;99450.57;1731811;81;21084;-60
2022/02/23 05:50:35;;;;;;;1.83;0.37;;;;;;;1.96;61.64;99457.48;1731759;81;21106;-58
2022/02/23 05:53:01;;;;;;;0.70;0.40;;;;;;;2.03;61.37;99458.67;1731438;81;21069;-58
2022/02/23 05:55:27;;;;;;;0.80;0.50;;;;;;;2.12;61.16;99454.97;1732973;81;21078;-58
2022/02/23 05:57:54;;;;;;;0.70;0.50;;;;;;;2.17;61.02;99453.09;1730734;81;21073;-58
2022/02/23 06:00:20;;;;;;;0.90;0.40;;;;;;;2.24;60.94;99462.23;1729053;81;21943;-57
2022/02/23 06:02:47;;;;;;;1.10;0.40;;;;;;;2.33;60.81;99463.83;1732377;81;21006;-58
2022/02/23 06:05:13;;;;;;;0.90;0.50;;;;;;;2.40;60.72;99467.23;1731145;81;21675;-57
2022/02/23 06:07:40;;;;;;;1.67;0.50;;;;;;;2.46;60.65;99465.36;1731419;81;21544;-58
2022/02/23 06:10:08;;;;;;;1.30;0.50;;;;;;;2.54;60.52;99474.50;1732693;81;21119;-58
2022/02/23 06:12:36;;;;;;;0.80;0.50;;;;;;;2.58;60.44;99473.52;1727342;81;21100;-58
2022/02/23 06:15:02;;;;;;;3.57;0.60;;;;;;;2.63;60.29;99467.22;1732482;81;21081;-57
2022/02/23 06:17:29;;;;;;;1.13;0.60;;;;;;;2.70;60.24;99476.38;1732116;81;21039;-57
2022/02/23 06:19:55;;;;;;;1.13;0.60;;;;;;;2.76;60.08;99474.91;1730764;81;21340;-57
2022/02/23 06:22:21;;;;;;;0.93;0.57;;;;;;;2.81;60.04;99478.34;1720983;81;21092;-56
2022/02/23 06:24:48;;;;;;;1.43;0.50;;;;;;;2.86;59.63;99482.67;1753802;80;21106;-57
2022/02/23 06:27:17;;;;;;;1.20;0.57;;;;;;;2.87;59.32;99485.75;1733882;80;21067;-57
2022/02/23 06:29:42;;;;;;;1.37;0.50;;;;;;;2.88;59.04;99485.30;1745712;80;20990;-58
2022/02/23 06:32:08;;;;;;;1.67;0.70;;;;;;;2.86;58.80;99483.13;1738658;80;21108;-58
2022/02/23 06:34:37;;;;;;;1.70;0.47;;;;;;;2.86;58.62;99491.09;1743138;81;21104;-57
2022/02/23 06:37:04;;;;;;;1.80;0.40;;;;;;;2.84;58.53;99486.26;1740999;81;21865;-57
2022/02/23 06:39:32;;;;;;;1.23;0.40;;;;;;;2.83;58.34;99481.84;1745285;81;21065;-57
2022/02/23 06:41:59;;;;;;;0.63;0.50;;;;;;;2.83;58.38;99488.04;1728028;81;21120;-57
2022/02/23 06:44:25;;;;;;;0.60;0.40;;;;;;;2.85;58.22;99490.22;1675637;81;21118;-56
2022/02/23 06:46:51;;;;;;;0.93;0.40;;;;;;;2.88;58.12;99488.84;1726349;81;21091;-57
2022/02/23 06:49:18;;;;;;;0.60;0.40;;;;;;;2.91;58.10;99496.72;1723385;81;23364;-57
2022/02/23 06:51:46;;;;;;;0.50;0.40;;;;;;;2.96;57.94;99496.64;1724147;81;21495;-56
2022/02/23 06:54:12;;;;;;;0.60;0.40;;;;;;;2.99;57.87;99498.77;1695864;83;21186;-57
2022/02/23 06:56:39;;;;;;;0.47;0.20;;;;;;;3.05;57.79;99495.11;1729937;81;21068;-56
2022/02/23 06:59:05;;;;;;;1.47;0.30;;;;;;;3.11;57.50;99499.41;1723701;81;21549;-57
2022/02/23 07:01:34;;;;;;;0.40;0.30;;;;;;;3.14;57.30;99502.02;1716656;81;21120;-56
2022/02/23 07:04:00;;;;;;;0.50;0.30;;;;;;;3.17;56.80;99504.59;1720579;81;21420;-56
2022/02/23 07:06:27;;;;;;;0.63;0.20;;;;;;;3.20;56.54;99513.39;1727131;81;21533;-56
2022/02/23 07:08:53;;;;;;;0.60;0.30;;;;;;;3.21;56.59;99508.94;1725307;81;21480;-56
2022/02/23 07:11:20;;;;;;;1.80;0.30;;;;;;;3.27;56.34;99519.44;1722402;81;22229;-57
2022/02/23 07:13:47;;;;;;;2.60;0.30;;;;;;;3.31;56.12;99518.02;1721117;81;21145;-57
2022/02/23 07:16:15;;;;;;;0.70;0.30;;;;;;;3.38;56.08;99516.97;1727315;81;21041;-56
2022/02/23 07:18:41;;;;;;;0.47;0.30;;;;;;;3.43;55.75;99515.52;1721223;81;21027;-56
2022/02/23 07:21:08;;;;;;;0.50;0.30;;;;;;;3.46;55.51;99519.45;1725703;81;21051;-56
2022/02/23 07:23:34;;;;;;;1.70;0.40;;;;;;;3.49;55.13;99525.16;1723430;81;21074;-56
2022/02/23 07:26:01;;;;;;;0.80;0.30;;;;;;;3.50;54.48;99520.23;1725842;81;21117;-57
2022/02/23 07:28:27;;;;;;;0.67;0.30;;;;;;;3.50;54.48;99521.11;1727157;81;21096;-57
2022/02/23 07:30:54;;;;;;;0.53;0.30;;;;;;;3.53;53.97;99528.16;1722825;81;21107;-56
2022/02/23 07:33:21;;;;;;;0.70;0.37;;;;;;;3.56;53.80;99529.42;1732499;81;21587;-56
2022/02/23 07:35:48;;;;;;;0.50;0.30;;;;;;;3.58;53.27;99530.23;1729597;81;21671;-56
2022/02/23 07:38:14;;;;;;;0.47;0.30;;;;;;;3.57;53.58;99537.38;1728206;81;21141;-56
2022/02/23 07:40:41;;;;;;;2.27;0.47;;;;;;;3.59;53.36;99546.17;1724848;80;21144;-56
2022/02/23 07:43:08;;;;;;;0.47;0.30;;;;;;;3.57;53.22;99532.05;1736309;81;21136;-56
2022/02/23 07:45:36;;;;;;;2.47;0.40;;;;;;;3.56;53.67;99534.75;1722613;81;21485;-56
2022/02/23 07:48:04;;;;;;;1.80;0.37;;;;;;;3.60;53.73;99544.39;1754160;80;21508;-56
2022/02/23 07:50:31;;;;;;;0.70;0.30;;;;;;;3.64;53.61;99536.77;1756432;80;21102;-56
2022/02/23 07:52:57;;;;;;;1.60;0.30;;;;;;;3.71;53.54;99539.70;1730267;81;22715;-56
2022/02/23 07:55:25;;;;;;;1.13;0.40;;;;;;;3.72;53.17;99543.66;1753345;80;21159;-56
2022/02/23 07:57:52;;;;;;;0.80;0.50;;;;;;;3.71;52.96;99540.58;1758083;80;21606;-56
2022/02/23 08:00:21;;;;;;;0.53;0.37;;;;;;;3.70;53.06;99542.81;1756725;80;21349;-55
2022/02/23 08:02:47;;;;;;;2.17;0.80;;;;;;;3.73;53.14;99546.75;1724316;81;23127;-55
2022/02/23 08:05:13;;;;;;;1.07;0.40;;;;;;;3.76;53.62;99542.66;1731867;81;21575;-55
2022/02/23 08:07:40;;;;;;;2.80;0.30;;;;;;;3.82;53.33;99549.64;1751014;80;21546;-56
2022/02/23 08:10:07;;;;;;;0.73;0.37;;;;;;;3.86;53.07;99545.10;1735369;81;22580;-55
2022/02/23 08:12:34;;;;;;;0.70;0.33;;;;;;;3.85;53.04;99550.87;1740910;80;21071;-56
2022/02/23 08:19:30;;;;;;;0.60;0.40;;;;;;;3.84;52.93;99542.92;1756949;80;23330;-56
2022/02/23 08:20:13;;;;;;;0.42;0.30;;;;;;;3.87;53.23;99539.74;1751775;80;21401;-56
2022/02/23 08:22:40;;;;;;;1.10;0.40;;;;;;;3.89;53.26;99542.38;1758294;80;20936;-56
2022/02/23 08:25:07;;;;;;;1.20;0.40;;;;;;;3.94;53.36;99541.80;1760248;80;20948;-56
2022/02/23 08:27:35;;;;;;;0.70;0.30;;;;;;;3.99;53.14;99543.91;1757774;80;21098;-55
2022/02/23 08:30:04;;;;;;;0.90;0.30;;;;;;;4.01;53.01;99540.27;1758968;80;20932;-56
2022/02/23 08:32:30;;;;;;;0.40;0.30;;;;;;;4.05;53.08;99530.42;1758976;80;21012;-55
2022/02/23 08:34:57;;;;;;;0.60;0.30;;;;;;;4.10;52.44;99533.83;1758439;80;20937;-55
2022/02/23 08:37:23;;;;;;;1.67;0.30;;;;;;;4.11;51.86;99531.13;1758562;80;20909;-56
2022/02/23 08:39:51;;;;;;;2.20;0.33;;;;;;;4.13;51.83;99528.44;1729621;80;21922;-56
2022/02/23 08:42:18;;;;;;;0.93;0.40;;;;;;;4.14;52.22;99522.20;1733638;81;20985;-56
2022/02/23 08:44:44;;;;;;;1.03;0.40;;;;;;;4.16;52.81;99523.05;1736371;81;20919;-56
2022/02/23 08:47:11;;;;;;;0.70;0.40;;;;;;;4.19;52.78;99529.60;1735374;81;20982;-55
2022/02/23 08:49:37;;;;;;;0.80;0.40;;;;;;;4.21;52.98;99533.11;1736462;81;20972;-56
2022/02/23 08:52:05;;;;;;;1.10;0.40;;;;;;;4.26;53.38;99524.52;1728511;81;22031;-56
2022/02/23 08:54:31;;;;;;;1.33;0.50;;;;;;;4.36;53.08;99519.38;1732232;81;21052;-56
2022/02/23 08:56:58;;;;;;;18.03;6.47;;;;;;;4.41;52.38;99518.81;1731583;81;21131;-56
2022/02/23 08:59:24;;;;;;;6.20;2.27;;;;;;;4.43;51.60;99526.28;1731429;81;21681;-56
2022/02/23 09:01:51;;;;;;;1.73;0.80;;;;;;;4.45;51.66;99527.58;1752710;80;21396;-56
2022/02/23 09:04:18;;;;;;;1.40;0.80;;;;;;;4.49;51.34;99530.14;1734463;80;21508;-56
2022/02/23 09:06:44;;;;;;;2.20;0.70;;;;;;;4.55;50.91;99528.63;1736261;80;21433;-56
2022/02/23 09:09:13;;;;;;;2.00;0.80;;;;;;;4.60;50.86;99526.27;1737054;80;21511;-56
2022/02/23 09:11:40;;;;;;;1.17;0.60;;;;;;;4.63;50.81;99528.87;1737369;80;21059;-56
2022/02/23 09:14:07;;;;;;;1.27;0.50;;;;;;;4.63;50.74;99533.75;1739932;80;20966;-55
2022/02/23 09:18:16;;;;;;;0.90;0.50;;;;;;;4.71;51.15;99533.53;1831719;76;27346;-57
2022/02/23 09:20:43;;;;;;;0.70;0.50;;;;;;;4.68;51.61;99534.97;1803924;77;20989;-57
2022/02/23 09:23:09;;;;;;;0.80;0.40;;;;;;;4.74;51.59;99538.78;1806832;78;21091;-57
2022/02/23 09:25:36;;;;;;;0.50;0.40;;;;;;;4.81;51.79;99536.36;1805328;77;21442;-57
2022/02/23 09:28:03;;;;;;;2.33;0.60;;;;;;;4.87;51.50;99542.38;1770881;79;21037;-57
2022/02/23 09:30:30;;;;;;;1.33;0.60;;;;;;;4.90;51.58;99533.43;1744823;80;21037;-57
2022/02/23 09:32:56;;;;;;;3.90;0.70;;;;;;;4.96;51.51;99530.58;1764120;79;21498;-57
2022/02/23 09:35:24;;;;;;;0.60;0.40;;;;;;;5.03;51.33;99524.59;1767786;79;21559;-56
2022/02/23 09:37:50;;;;;;;0.80;0.43;;;;;;;5.13;51.36;99532.75;1743401;80;20950;-57
2022/02/23 09:40:17;;;;;;;1.87;0.60;;;;;;;5.21;50.97;99526.27;1765700;79;21116;-57
2022/02/23 09:42:45;;;;;;;2.13;0.50;;;;;;;5.29;50.75;99525.57;1732339;80;21080;-57
2022/02/23 09:45:12;;;;;;;0.90;0.50;;;;;;;5.34;50.56;99524.11;1768077;79;20937;-56
2022/02/23 09:47:39;;;;;;;1.80;0.50;;;;;;;5.41;50.17;99524.33;1768630;79;21071;-57
2022/02/23 09:50:10;;;;;;;0.87;0.40;;;;;;;5.45;49.77;99527.30;1766576;79;21016;-57
2022/02/23 09:52:36;;;;;;;0.80;0.40;;;;;;;5.47;48.98;99529.92;1752385;80;21309;-57
2022/02/23 09:55:05;;;;;;;0.73;0.40;;;;;;;5.47;48.85;99528.59;1769850;79;21040;-57
2022/02/23 09:57:31;;;;;;;1.13;0.60;;;;;;;5.43;48.69;99533.17;1758409;79;21624;-57
2022/02/23 09:59:58;;;;;;;0.60;0.40;;;;;;;5.37;49.14;99528.00;1759715;79;21167;-56
2022/02/23 10:02:25;;;;;;;0.60;0.40;;;;;;;5.37;49.24;99532.46;1754332;79;21351;-56
2022/02/23 10:04:51;;;;;;;0.60;0.50;;;;;;;5.41;47.52;99536.80;1766786;79;21558;-57
2022/02/23 10:07:30;;;;;;;0.90;0.43;;;;;;;5.40;46.53;99529.71;1755071;79;21739;-56
2022/02/23 10:09:57;;;;;;;1.10;0.50;;;;;;;5.41;47.37;99533.67;1759966;79;21270;-57
2022/02/23 10:12:26;;;;;;;1.10;0.50;;;;;;;5.49;47.79;99535.64;1708602;82;21095;-56
2022/02/23 10:15:11;;;;;;;1.50;0.50;;;;;;;5.56;47.89;99538.98;1705425;81;21079;-57
2022/02/23 10:17:44;;;;;;;0.83;0.50;;;;;;;5.60;47.77;99528.64;1755117;79;21046;-56
2022/02/23 10:20:34;;;;;;;0.80;0.43;;;;;;;5.67;47.74;99527.52;1758557;79;21052;-57
2022/02/23 10:23:18;;;;;;;0.87;0.40;;;;;;;5.70;47.62;99523.39;1756496;80;21829;-57
2022/02/23 10:25:44;;;;;;;0.90;0.53;;;;;;;5.73;47.75;99526.44;1767357;79;21537;-57
2022/02/23 10:28:20;;;;;;;0.87;0.60;;;;;;;5.75;47.47;99523.27;1757808;79;21657;-56
2022/02/23 10:30:53;;;;;;;1.45;0.50;;;;;;;5.75;47.25;99521.92;1755989;79;21025;-56
2022/02/23 10:33:26;;;;;;;1.32;0.50;;;;;;;5.74;47.42;99522.38;1749527;80;21083;-57
2022/02/23 10:36:02;;;;;;;0.70;0.40;;;;;;;5.74;47.39;99518.84;1760765;79;21044;-57
2022/02/23 10:38:33;;;;;;;10.53;5.67;;;;;;;5.77;46.98;99518.75;1765865;79;21128;-57
2022/02/23 10:41:02;;;;;;;2.13;0.90;;;;;;;5.79;46.88;99523.09;1761719;79;21073;-56
2022/02/23 10:43:45;;;;;;;0.83;0.50;;;;;;;5.81;46.42;99521.26;1755345;79;21057;-57
2022/02/23 10:46:11;;;;;;;0.93;0.53;;;;;;;5.82;46.47;99522.13;1761760;79;20951;-57
2022/02/23 10:48:43;;;;;;;1.17;0.40;;;;;;;5.85;46.65;99528.27;1760967;79;21001;-57
2022/02/23 10:51:11;;;;;;;1.23;0.40;;;;;;;5.91;46.55;99533.89;1755543;79;21144;-57
2022/02/23 10:53:38;;;;;;;1.83;0.50;;;;;;;5.95;46.11;99521.73;1728418;80;21154;-57
2022/02/23 10:56:29;;;;;;;0.70;0.50;;;;;;;5.96;45.91;99519.91;1756038;79;21057;-57
2022/02/23 10:59:09;;;;;;;1.53;0.50;;;;;;;5.93;45.92;99515.56;1755959;79;21615;-57
2022/02/23 11:01:38;;;;;;;1.37;0.40;;;;;;;5.96;45.70;99525.25;1757451;79;20934;-56
2022/02/23 11:04:05;;;;;;;5.10;0.70;;;;;;;5.91;45.30;99528.55;1758439;79;21084;-56
2022/02/23 11:06:31;;;;;;;1.30;0.60;;;;;;;5.90;45.60;99518.78;1758610;79;20985;-56
2022/02/23 11:08:58;;;;;;;5.40;0.60;;;;;;;5.95;45.88;99522.20;1756802;79;21081;-57
2022/02/23 11:11:26;;;;;;;0.80;0.60;;;;;;;6.02;45.15;99523.27;1756719;79;21155;-57
2022/02/23 11:13:52;;;;;;;0.93;0.50;;;;;;;6.05;45.36;99519.59;1760582;79;20931;-56
2022/02/23 11:16:19;;;;;;;1.00;0.43;;;;;;;6.08;45.08;99524.39;1757212;79;21091;-57
2022/02/23 11:18:47;;;;;;;3.60;2.20;;;;;;;6.10;44.90;99525.69;1761391;78;21475;-56
2022/02/23 11:21:18;;;;;;;0.77;0.60;;;;;;;6.10;44.99;99523.01;1765071;78;20961;-56
2022/02/23 11:23:49;;;;;;;13.53;8.27;;;;;;;6.13;45.03;99519.34;1760744;80;20938;-56
2022/02/23 11:26:19;;;;;;;2.50;0.93;;;;;;;6.14;44.79;99517.95;1760955;78;20925;-57
2022/02/23 11:29:02;;;;;;;1.00;0.50;;;;;;;6.15;45.00;99517.03;1761694;80;21086;-56
2022/02/23 11:31:35;;;;;;;1.37;0.70;;;;;;;6.15;44.28;99516.16;1762494;78;20922;-57
2022/02/23 11:34:12;;;;;;;1.07;0.40;;;;;;;6.12;44.85;99513.16;1765501;78;20961;-56
2022/02/23 11:36:42;;;;;;;1.40;0.40;;;;;;;6.14;44.41;99520.63;1762740;78;20926;-56
2022/02/23 11:39:17;;;;;;;0.67;0.30;;;;;;;6.14;44.12;99517.08;1763273;78;21470;-57
2022/02/23 11:41:53;;;;;;;0.93;0.30;;;;;;;6.12;44.23;99515.83;1760459;78;21003;-57
2022/02/23 11:44:26;;;;;;;0.60;0.40;;;;;;;6.11;43.88;99512.73;1762276;78;20866;-57
2022/02/23 11:50:41;;;;;;;11.07;9.57;;;;;;;6.14;44.16;99513.95;1770499;78;21028;-57
2022/02/23 11:53:46;;;;;;;2.50;2.00;;;;;;;6.15;44.55;99499.66;1758260;78;21096;-57